Time;durP1;ratioP1;P1;durP2;ratioP2;P2;SDS_P1;SDS_P2;PMS_P1;PMS_P2;Temp;Humidity;BMP_temperature;BMP_pressure;BME280_temperature;BME280_humidity;BME280_pressure;Samples;Min_cycle;Max_cycle;Signal;HPM_P1;HPM_P2
2023/09/24 00:00:13;;;;;;;11.13;6.30;;;;;;;10.77;98.67;102250.84;5094654;28;20397;-71
2023/09/24 00:02:38;;;;;;;10.95;5.75;;;;;;;10.75;98.72;102246.66;5087124;28;20080;-71
2023/09/24 00:05:08;;;;;;;10.75;5.82;;;;;;;10.74;98.72;102259.09;5088336;28;20028;-71
2023/09/24 00:07:33;;;;;;;;;;;;;;;10.84;98.66;102259.94;5085641;28;20032;-71
2023/09/24 00:10:00;;;;;;;9.25;5.97;;;;;;;10.75;98.58;102265.25;5084761;28;19916;-71
2023/09/24 00:12:28;;;;;;;10.73;6.28;;;;;;;10.71;98.78;102262.03;5085768;28;20031;-71
2023/09/24 00:14:53;;;;;;;11.55;6.03;;;;;;;10.73;98.79;102267.22;5090039;28;20027;-71
2023/09/24 00:17:19;;;;;;;10.05;6.75;;;;;;;10.71;98.70;102264.69;5085664;28;20397;-71
2023/09/24 00:19:45;;;;;;;9.88;6.07;;;;;;;10.72;98.42;102270.84;5087537;28;20020;-71
2023/09/24 00:22:10;;;;;;;8.30;6.05;;;;;;;10.67;98.88;102268.56;5084380;28;20104;-72
2023/09/24 00:24:36;;;;;;;11.07;7.00;;;;;;;10.65;98.60;102267.03;5088046;28;20031;-71
2023/09/24 00:27:01;;;;;;;10.80;6.18;;;;;;;10.65;98.87;102275.84;5086716;28;20106;-71
2023/09/24 00:29:27;;;;;;;9.10;6.18;;;;;;;10.62;98.84;102270.81;5090495;28;20591;-71
2023/09/24 00:31:53;;;;;;;12.05;6.35;;;;;;;10.58;99.02;102269.41;5085785;28;20028;-71
2023/09/24 00:34:18;;;;;;;10.88;6.70;;;;;;;10.59;98.78;102270.25;5089294;28;20028;-71
2023/09/24 00:36:43;;;;;;;14.65;6.35;;;;;;;10.61;99.33;102270.94;5086185;28;20060;-71
2023/09/24 00:39:08;;;;;;;10.80;6.03;;;;;;;10.54;99.38;102274.16;5089634;28;20047;-71
2023/09/24 00:41:34;;;;;;;11.40;6.00;;;;;;;10.55;98.80;102278.47;5091132;28;20032;-71
2023/09/24 00:44:00;;;;;;;12.88;6.75;;;;;;;10.53;99.23;102282.25;5087042;28;20035;-71
2023/09/24 00:46:26;;;;;;;11.60;6.85;;;;;;;10.47;99.65;102282.78;5100285;28;20056;-71
2023/09/24 00:48:52;;;;;;;10.70;6.75;;;;;;;10.42;99.39;102293.81;5105890;28;20109;-71
2023/09/24 00:51:22;;;;;;;11.90;6.78;;;;;;;10.30;99.63;102289.56;5099566;28;20039;-71
2023/09/24 00:53:51;;;;;;;8.43;6.35;;;;;;;10.26;99.38;102296.13;5092939;28;20027;-71
2023/09/24 00:56:17;;;;;;;9.10;6.40;;;;;;;10.24;99.92;102292.75;5088090;28;20024;-71
2023/09/24 00:58:46;;;;;;;8.10;6.47;;;;;;;10.19;100.00;102287.81;5094139;28;20023;-71
2023/09/24 01:01:12;;;;;;;11.55;6.82;;;;;;;10.17;100.00;102287.13;5094447;28;20103;-71
2023/09/24 01:03:40;;;;;;;12.07;7.05;;;;;;;10.15;100.00;102283.75;5090992;28;20111;-72
2023/09/24 01:06:06;;;;;;;11.35;7.00;;;;;;;10.11;100.00;102286.78;5094269;28;20020;-71
2023/09/24 01:08:33;;;;;;;11.35;6.82;;;;;;;10.08;100.00;102284.38;5084863;28;20119;-71
2023/09/24 01:10:58;;;;;;;11.05;6.93;;;;;;;10.03;100.00;102282.13;5102436;28;20557;-71
2023/09/24 01:13:24;;;;;;;15.13;7.20;;;;;;;10.07;100.00;102278.25;5097623;28;20020;-71
2023/09/24 01:15:50;;;;;;;12.57;7.07;;;;;;;10.05;100.00;102272.22;5101183;28;20024;-71
2023/09/24 01:18:21;;;;;;;10.23;6.70;;;;;;;10.08;100.00;102281.72;5100550;28;20020;-72
2023/09/24 01:20:47;;;;;;;11.40;6.60;;;;;;;10.09;100.00;102286.06;5093440;28;20058;-71
2023/09/24 01:23:14;;;;;;;10.90;7.10;;;;;;;10.11;100.00;102278.81;5094499;28;20056;-71
2023/09/24 01:25:41;;;;;;;10.95;7.00;;;;;;;10.07;100.00;102280.91;5085344;28;20380;-71
2023/09/24 01:28:07;;;;;;;10.52;7.30;;;;;;;10.10;100.00;102283.28;5099946;28;20043;-71
2023/09/24 01:30:34;;;;;;;11.20;6.75;;;;;;;10.07;100.00;102280.91;5091925;28;20024;-71
2023/09/24 01:33:00;;;;;;;10.52;7.20;;;;;;;10.09;100.00;102273.63;5088932;28;20036;-71
2023/09/24 01:35:29;;;;;;;11.60;6.90;;;;;;;10.07;100.00;102286.19;5082736;28;20473;-71
2023/09/24 01:37:59;;;;;;;10.15;6.63;;;;;;;10.06;100.00;102276.56;5084832;28;20114;-71
2023/09/24 01:40:27;;;;;;;13.73;7.03;;;;;;;10.03;100.00;102279.47;5090889;28;20024;-71
2023/09/24 01:42:55;;;;;;;14.90;7.50;;;;;;;10.03;100.00;102279.47;5089918;28;20468;-71
2023/09/24 01:45:21;;;;;;;11.73;7.22;;;;;;;10.03;100.00;102282.13;5096781;28;20503;-71
2023/09/24 01:47:49;;;;;;;13.00;7.32;;;;;;;10.02;100.00;102276.97;5093218;28;20097;-71
2023/09/24 01:50:16;;;;;;;15.02;7.57;;;;;;;9.98;100.00;102279.03;5087012;28;20447;-71
2023/09/24 01:52:41;;;;;;;12.18;7.55;;;;;;;9.96;100.00;102278.34;5099158;28;20081;-71
2023/09/24 01:55:07;;;;;;;12.02;7.05;;;;;;;9.93;100.00;102283.91;5089198;28;20105;-71
2023/09/24 01:57:32;;;;;;;11.65;7.18;;;;;;;9.89;100.00;102275.38;5093991;28;20023;-71
2023/09/24 01:59:58;;;;;;;11.02;6.82;;;;;;;9.91;100.00;102276.06;5094531;28;20027;-71
2023/09/24 02:02:25;;;;;;;10.63;6.82;;;;;;;9.86;100.00;102283.59;5090432;28;20027;-71
2023/09/24 02:04:51;;;;;;;12.05;7.50;;;;;;;9.86;100.00;102283.59;5087965;28;20027;-71
2023/09/24 02:07:16;;;;;;;11.82;7.30;;;;;;;9.85;100.00;102267.81;5086954;28;20386;-71
2023/09/24 02:09:42;;;;;;;12.57;7.38;;;;;;;9.81;100.00;102280.47;5084986;28;20020;-71
2023/09/24 02:12:09;;;;;;;11.90;7.30;;;;;;;9.79;100.00;102286.88;5092653;28;20092;-71
2023/09/24 02:14:34;;;;;;;13.38;7.30;;;;;;;9.75;100.00;102283.66;5089430;28;20031;-71
2023/09/24 02:16:59;;;;;;;13.60;7.90;;;;;;;9.71;100.00;102281.38;5103679;28;20032;-71
2023/09/24 02:19:26;;;;;;;11.50;7.72;;;;;;;9.69;100.00;102283.31;5100640;28;20023;-71
2023/09/24 02:21:51;;;;;;;12.38;7.72;;;;;;;9.63;100.00;102282.88;5099879;28;20023;-71
2023/09/24 02:24:18;;;;;;;11.20;7.75;;;;;;;9.63;100.00;102290.00;5103307;28;20015;-71
2023/09/24 02:26:44;;;;;;;11.60;7.47;;;;;;;9.60;100.00;102300.88;5103109;28;20016;-71
2023/09/24 02:29:09;;;;;;;16.25;7.68;;;;;;;9.55;100.00;102305.72;5097220;28;20035;-71
2023/09/24 02:31:35;;;;;;;12.73;8.20;;;;;;;9.51;100.00;102297.16;5094520;28;20035;-71
2023/09/24 02:34:00;;;;;;;8.88;7.15;;;;;;;9.49;100.00;102301.75;5087077;28;20028;-71
2023/09/24 02:36:25;;;;;;;10.70;7.32;;;;;;;9.48;100.00;102300.06;5085930;28;20026;-71
2023/09/24 02:38:51;;;;;;;10.70;7.60;;;;;;;9.49;100.00;102301.75;5081784;28;20040;-71
2023/09/24 02:41:17;;;;;;;11.10;7.88;;;;;;;9.51;100.00;102304.25;5092190;28;20031;-71
2023/09/24 02:43:42;;;;;;;13.23;7.90;;;;;;;9.54;100.00;102310.19;5104381;28;20020;-71
2023/09/24 02:46:08;;;;;;;13.63;7.50;;;;;;;9.53;100.00;102302.31;5087720;28;20112;-71
2023/09/24 02:48:35;;;;;;;11.75;7.70;;;;;;;9.54;100.00;102296.91;5088656;28;20024;-71
2023/09/24 02:51:09;;;;;;;12.15;7.47;;;;;;;9.54;100.00;102298.69;5094695;28;20088;-71
2023/09/24 02:53:36;;;;;;;14.45;8.00;;;;;;;9.55;100.00;102303.06;5086037;28;20032;-71
2023/09/24 02:56:03;;;;;;;12.05;7.32;;;;;;;9.50;100.00;102298.13;5094910;28;20019;-71
2023/09/24 02:58:29;;;;;;;15.70;7.53;;;;;;;9.53;100.00;102304.97;5092670;28;20028;-71
2023/09/24 03:00:54;;;;;;;11.90;6.93;;;;;;;9.54;100.00;102304.88;5087198;28;20031;-71
2023/09/24 03:03:19;;;;;;;12.05;7.07;;;;;;;9.52;100.00;102300.63;5089187;28;20034;-71
2023/09/24 03:05:45;;;;;;;11.18;7.63;;;;;;;9.52;100.00;102301.47;5089649;28;20496;-71
2023/09/24 03:08:11;;;;;;;12.93;8.05;;;;;;;9.54;100.00;102306.66;5081727;28;20024;-71
2023/09/24 03:10:36;;;;;;;11.10;7.28;;;;;;;9.54;100.00;102312.84;5097975;28;20044;-71
2023/09/24 03:13:04;;;;;;;13.95;7.65;;;;;;;9.51;100.00;102307.75;5083706;28;20047;-71
2023/09/24 03:15:30;;;;;;;12.13;7.40;;;;;;;9.51;100.00;102307.75;5083583;28;20074;-71
2023/09/24 03:17:55;;;;;;;13.88;7.60;;;;;;;9.50;100.00;102310.53;5088849;28;20023;-70
2023/09/24 03:20:20;;;;;;;11.50;6.97;;;;;;;9.47;100.00;102308.97;5087923;28;20070;-71
2023/09/24 03:22:54;;;;;;;11.07;6.65;;;;;;;9.50;100.00;102319.34;5083854;28;20028;-71
2023/09/24 03:25:22;;;;;;;11.25;6.80;;;;;;;9.47;100.00;102321.41;5087446;28;20099;-71
2023/09/24 03:27:53;;;;;;;13.35;7.18;;;;;;;9.48;100.00;102331.03;5092751;28;20058;-71
2023/09/24 03:30:19;;;;;;;17.88;7.60;;;;;;;9.46;100.00;102320.56;5086956;28;20024;-71
2023/09/24 03:32:49;;;;;;;12.70;7.25;;;;;;;9.49;100.00;102325.59;5093465;28;20430;-71
2023/09/24 03:35:17;;;;;;;12.38;7.22;;;;;;;9.49;100.00;102330.06;5099108;28;20031;-72
2023/09/24 03:37:45;;;;;;;11.82;7.00;;;;;;;9.47;100.00;102332.00;5086998;28;20111;-71
2023/09/24 03:40:14;;;;;;;12.95;7.65;;;;;;;9.47;100.00;102332.84;5095472;28;20024;-71
2023/09/24 03:42:40;;;;;;;10.48;6.05;;;;;;;9.51;100.00;102334.28;5081101;28;20393;-71
2023/09/24 03:45:17;;;;;;;11.40;7.25;;;;;;;9.48;100.00;102342.50;5098656;28;20023;-71
2023/09/24 03:47:45;;;;;;;9.10;6.65;;;;;;;9.44;100.00;102334.91;5093776;28;20102;-71
2023/09/24 03:50:13;;;;;;;12.50;6.43;;;;;;;9.45;100.00;102342.75;5101952;28;20026;-71
2023/09/24 03:52:40;;;;;;;11.23;7.10;;;;;;;9.43;100.00;102341.19;5093949;28;20028;-71
2023/09/24 03:55:05;;;;;;;10.77;6.50;;;;;;;9.42;100.00;102337.69;5106671;28;20092;-71
2023/09/24 03:57:30;;;;;;;9.80;6.72;;;;;;;9.44;100.00;102335.75;5100702;28;20475;-71
2023/09/24 03:59:57;;;;;;;15.43;7.15;;;;;;;9.43;100.00;102342.03;5086474;28;20028;-71
2023/09/24 04:02:23;;;;;;;11.18;6.80;;;;;;;9.41;100.00;102346.63;5095317;28;20043;-71
2023/09/24 04:04:49;;;;;;;10.90;6.63;;;;;;;9.41;100.00;102351.91;5099644;28;20477;-71
2023/09/24 04:07:15;;;;;;;12.18;6.82;;;;;;;9.42;100.00;102350.09;5083461;28;20040;-71
2023/09/24 04:09:43;;;;;;;11.93;7.10;;;;;;;9.41;100.00;102354.56;5094678;28;20805;-71
2023/09/24 04:12:08;;;;;;;11.35;6.95;;;;;;;9.43;100.00;102344.69;5098117;28;20066;-71
2023/09/24 04:14:34;;;;;;;9.00;7.13;;;;;;;9.41;100.00;102356.38;5092108;28;20032;-71
2023/09/24 04:16:59;;;;;;;9.70;6.68;;;;;;;9.42;100.00;102350.94;5106786;28;20031;-71
2023/09/24 04:19:25;;;;;;;9.10;6.70;;;;;;;9.41;100.00;102361.69;5108139;28;20516;-71
2023/09/24 04:21:53;;;;;;;10.57;6.47;;;;;;;9.42;100.00;102363.38;5092882;28;20032;-71
2023/09/24 04:24:19;;;;;;;10.02;6.53;;;;;;;9.38;100.00;102356.63;5097133;28;20093;-71
2023/09/24 04:26:47;;;;;;;11.95;6.28;;;;;;;9.39;100.00;102355.66;5088946;28;20052;-71
2023/09/24 04:29:14;;;;;;;11.70;6.50;;;;;;;9.39;100.00;102356.50;5095038;28;20469;-71
2023/09/24 04:31:39;;;;;;;11.57;6.80;;;;;;;9.39;100.00;102359.16;5091534;28;20023;-71
2023/09/24 04:34:05;;;;;;;11.88;6.90;;;;;;;9.36;100.00;102361.22;5094572;28;20020;-71
2023/09/24 04:36:30;;;;;;;9.85;7.18;;;;;;;9.38;100.00;102362.78;5096807;28;20032;-71
2023/09/24 04:38:56;;;;;;;14.27;7.28;;;;;;;9.42;100.00;102360.72;5085253;28;20024;-71
2023/09/24 04:41:21;;;;;;;12.18;6.55;;;;;;;9.39;100.00;102361.81;5102712;28;20038;-71
2023/09/24 04:43:47;;;;;;;14.18;6.93;;;;;;;9.37;99.92;102374.34;5102684;28;20027;-70
2023/09/24 04:46:14;;;;;;;10.02;7.25;;;;;;;9.35;100.00;102367.50;5091720;28;20026;-71
2023/09/24 04:48:39;;;;;;;10.55;7.40;;;;;;;9.35;100.00;102365.69;5104838;28;20507;-70
2023/09/24 04:51:04;;;;;;;12.65;7.20;;;;;;;9.37;100.00;102369.06;5091065;28;20024;-71
2023/09/24 04:53:30;;;;;;;14.07;6.93;;;;;;;9.38;100.00;102370.72;5102333;28;20031;-71
2023/09/24 04:55:56;;;;;;;12.20;7.18;;;;;;;9.35;100.00;102384.25;5093705;28;20024;-71
2023/09/24 04:58:22;;;;;;;11.82;7.45;;;;;;;9.31;100.00;102373.06;5093435;28;20020;-71
2023/09/24 05:00:47;;;;;;;15.32;7.68;;;;;;;9.31;100.00;102377.50;5097886;28;20496;-71
2023/09/24 05:03:12;;;;;;;9.38;7.13;;;;;;;9.27;100.00;102381.38;5091369;28;20538;-71
2023/09/24 05:05:42;;;;;;;14.52;7.13;;;;;;;9.28;100.00;102383.06;5091763;28;20043;-71
2023/09/24 05:08:07;;;;;;;;;;;;;;;9.38;100.00;102378.69;5089182;28;20024;-71
2023/09/24 05:10:33;;;;;;;8.90;7.00;;;;;;;9.26;99.89;102375.25;5089517;28;20284;-71
2023/09/24 05:12:58;;;;;;;9.90;7.00;;;;;;;9.26;100.00;102385.84;5099729;28;20028;-71
2023/09/24 05:15:24;;;;;;;10.68;7.00;;;;;;;9.27;100.00;102382.22;5088419;28;20073;-71
2023/09/24 05:17:49;;;;;;;9.60;7.03;;;;;;;9.27;100.00;102384.03;5100984;28;20024;-70
2023/09/24 05:20:15;;;;;;;12.20;7.07;;;;;;;9.24;100.00;102387.75;5100860;28;20038;-71
2023/09/24 05:22:41;;;;;;;12.13;6.80;;;;;;;9.23;100.00;102393.16;5089934;28;20017;-71
2023/09/24 05:25:07;;;;;;;10.20;7.07;;;;;;;9.22;100.00;102397.63;5088038;28;20034;-71
2023/09/24 05:27:33;;;;;;;11.27;6.70;;;;;;;9.22;100.00;102394.97;5086807;28;20044;-71
2023/09/24 05:29:59;;;;;;;10.25;6.32;;;;;;;9.18;99.90;102396.19;5095641;28;20093;-71
2023/09/24 05:32:25;;;;;;;10.98;6.93;;;;;;;9.14;99.88;102404.53;5084465;28;20016;-70
2023/09/24 05:34:52;;;;;;;13.23;7.20;;;;;;;9.18;100.00;102409.44;5088993;28;20764;-70
2023/09/24 05:37:17;;;;;;;9.80;6.57;;;;;;;9.17;100.00;102414.88;5090401;28;20252;-71
2023/09/24 05:39:42;;;;;;;11.30;6.68;;;;;;;9.18;100.00;102412.09;5084059;28;20502;-71
2023/09/24 05:42:08;;;;;;;11.27;7.53;;;;;;;9.18;100.00;102416.56;5098631;28;20027;-71
2023/09/24 05:44:33;;;;;;;11.85;6.97;;;;;;;9.20;100.00;102419.94;5097149;28;20021;-71
2023/09/24 05:46:59;;;;;;;9.98;6.32;;;;;;;9.24;100.00;102421.38;5098444;28;20416;-71
2023/09/24 05:49:24;;;;;;;11.48;6.22;;;;;;;9.24;100.00;102426.66;5092589;28;20701;-71
2023/09/24 05:51:50;;;;;;;11.65;6.90;;;;;;;9.30;100.00;102423.53;5104927;28;20040;-71
2023/09/24 05:54:15;;;;;;;8.93;6.57;;;;;;;9.34;100.00;102426.78;5099840;28;20111;-71
2023/09/24 05:56:41;;;;;;;8.98;6.28;;;;;;;9.35;100.00;102429.31;5106823;28;20027;-71
2023/09/24 05:59:06;;;;;;;15.13;6.82;;;;;;;9.34;100.00;102429.44;5093269;28;20084;-71
2023/09/24 06:01:32;;;;;;;11.48;6.55;;;;;;;9.40;100.00;102435.09;5098620;28;20083;-71
2023/09/24 06:03:57;;;;;;;12.27;6.50;;;;;;;9.42;100.00;102432.31;5093811;28;20508;-71
2023/09/24 06:06:22;;;;;;;10.52;6.28;;;;;;;9.42;100.00;102438.44;5088966;28;20055;-71
2023/09/24 06:08:47;;;;;;;13.38;6.47;;;;;;;9.46;100.00;102436.41;5095345;28;20042;-71
2023/09/24 06:11:13;;;;;;;12.73;6.38;;;;;;;9.46;100.00;102431.94;5093649;28;20024;-71
2023/09/24 06:13:38;;;;;;;12.88;6.20;;;;;;;9.52;100.00;102433.25;5099185;28;20500;-71
2023/09/24 06:16:05;;;;;;;9.68;6.60;;;;;;;9.51;100.00;102431.56;5096957;28;20109;-71
2023/09/24 06:18:30;;;;;;;11.18;6.72;;;;;;;9.55;100.00;102433.84;5102252;28;20019;-71
2023/09/24 06:20:56;;;;;;;10.35;6.50;;;;;;;9.62;100.00;102434.19;5092162;28;20035;-70
2023/09/24 06:23:22;;;;;;;12.55;6.65;;;;;;;9.68;100.00;102439.00;5089734;28;20024;-71
2023/09/24 06:25:55;;;;;;;11.43;6.20;;;;;;;9.73;100.00;102446.56;5087523;28;20030;-71
2023/09/24 06:28:20;;;;;;;10.02;6.05;;;;;;;9.77;100.00;102445.34;5097785;28;20020;-71
2023/09/24 06:30:45;;;;;;;11.43;6.60;;;;;;;9.74;100.00;102430.53;5088871;28;20026;-71
2023/09/24 06:33:10;;;;;;;12.75;5.97;;;;;;;9.83;100.00;102447.50;5084407;28;20020;-71
2023/09/24 06:35:37;;;;;;;9.88;5.82;;;;;;;9.83;100.00;102445.72;5103779;28;20027;-71
2023/09/24 06:38:02;;;;;;;15.85;7.13;;;;;;;9.87;100.00;102449.78;5103067;28;20047;-71
2023/09/24 06:40:29;;;;;;;12.32;6.38;;;;;;;9.89;100.00;102454.97;5092947;28;20059;-71
2023/09/24 06:42:55;;;;;;;14.05;6.68;;;;;;;9.94;100.00;102450.13;5088542;28;20477;-71
2023/09/24 06:45:20;;;;;;;10.13;6.63;;;;;;;10.00;100.00;102444.28;5088922;28;20102;-71
2023/09/24 06:47:45;;;;;;;14.43;7.40;;;;;;;10.03;100.00;102444.03;5092243;28;20111;-71
2023/09/24 06:50:11;;;;;;;13.57;8.52;;;;;;;10.05;100.00;102447.41;5090990;28;20070;-71
2023/09/24 06:52:37;;;;;;;12.43;7.82;;;;;;;10.07;100.00;102455.25;5097078;28;20547;-71
2023/09/24 06:55:03;;;;;;;11.07;7.85;;;;;;;10.12;100.00;102459.22;5089585;28;20051;-71
2023/09/24 06:57:28;;;;;;;11.75;7.90;;;;;;;10.13;100.00;102458.25;5092376;28;20020;-71
2023/09/24 06:59:53;;;;;;;15.52;8.35;;;;;;;10.16;100.00;102465.13;5099034;28;20023;-71
2023/09/24 07:02:18;;;;;;;11.93;7.65;;;;;;;10.19;100.00;102462.19;5093967;28;20029;-71
2023/09/24 07:04:44;;;;;;;12.45;7.28;;;;;;;10.24;100.00;102468.84;5105580;28;20431;-71
2023/09/24 07:07:09;;;;;;;11.70;7.05;;;;;;;10.28;100.00;102465.91;5083018;28;20461;-71
2023/09/24 07:09:35;;;;;;;10.23;6.32;;;;;;;10.34;100.00;102473.38;5082512;28;20020;-71
2023/09/24 07:12:00;;;;;;;9.63;6.28;;;;;;;10.36;100.00;102468.75;5082913;28;20393;-71
2023/09/24 07:14:26;;;;;;;11.75;6.55;;;;;;;10.43;100.00;102467.28;5099729;28;20469;-71
2023/09/24 07:16:52;;;;;;;8.60;5.70;;;;;;;10.49;100.00;102466.78;5099936;28;20175;-71
2023/09/24 07:19:18;;;;;;;13.18;5.93;;;;;;;10.55;100.00;102464.44;5098873;28;20055;-71
2023/09/24 07:21:45;;;;;;;10.40;5.40;;;;;;;10.64;99.97;102468.09;5100204;28;20031;-71
2023/09/24 07:24:11;;;;;;;10.13;5.68;;;;;;;10.69;100.00;102471.22;5104321;28;20384;-71
2023/09/24 07:26:36;;;;;;;10.75;5.10;;;;;;;10.75;100.00;102465.38;5089822;28;20024;-71
2023/09/24 07:29:01;;;;;;;11.02;5.00;;;;;;;10.78;99.80;102470.44;5092038;28;20109;-71
2023/09/24 07:31:28;;;;;;;8.95;5.18;;;;;;;10.85;99.84;102474.25;5104154;28;20024;-71
2023/09/24 07:33:55;;;;;;;9.63;4.80;;;;;;;10.93;99.50;102484.22;5097171;28;20042;-71
2023/09/24 07:36:21;;;;;;;10.00;4.45;;;;;;;10.99;99.06;102485.53;5097209;28;20073;-71
2023/09/24 07:38:46;;;;;;;9.93;4.45;;;;;;;11.09;98.83;102487.22;5094993;28;20027;-71
2023/09/24 07:41:12;;;;;;;10.85;4.65;;;;;;;11.17;98.79;102481.25;5081068;28;20024;-71
2023/09/24 07:43:38;;;;;;;9.88;4.50;;;;;;;11.21;98.60;102487.13;5102678;28;20122;-71
2023/09/24 07:46:04;;;;;;;10.45;4.85;;;;;;;11.23;98.19;102483.34;5096427;28;20465;-71
2023/09/24 07:48:30;;;;;;;12.25;4.55;;;;;;;11.28;98.21;102491.78;5097617;28;20085;-71
2023/09/24 07:50:56;;;;;;;11.88;5.03;;;;;;;11.32;98.10;102495.03;5088396;28;20458;-71
2023/09/24 07:53:24;;;;;;;9.00;4.80;;;;;;;11.40;97.95;102496.03;5101784;28;20031;-71
2023/09/24 07:55:54;;;;;;;12.75;4.95;;;;;;;11.52;97.92;102503.88;5098903;28;20085;-71
2023/09/24 07:58:20;;;;;;;12.02;4.90;;;;;;;11.56;97.99;102499.97;5098566;28;20026;-71
2023/09/24 08:00:45;;;;;;;9.05;4.43;;;;;;;11.59;97.34;102505.88;5085183;28;20748;-71
2023/09/24 08:03:10;;;;;;;13.02;4.97;;;;;;;11.71;97.05;102503.94;5084161;28;20130;-70
2023/09/24 08:05:36;;;;;;;13.50;5.50;;;;;;;11.78;97.81;102500.63;5086217;28;20016;-71
2023/09/24 08:08:01;;;;;;;13.05;5.50;;;;;;;11.85;97.36;102500.91;5083347;28;20029;-71
2023/09/24 08:10:26;;;;;;;10.52;4.72;;;;;;;11.88;96.86;102494.47;5088468;28;20028;-71
2023/09/24 08:12:51;;;;;;;8.82;4.35;;;;;;;11.99;96.63;102497.00;5084411;28;20635;-71
2023/09/24 08:15:17;;;;;;;12.32;4.53;;;;;;;12.10;96.43;102497.69;5088632;28;20020;-71
2023/09/24 08:17:42;;;;;;;11.57;4.50;;;;;;;12.14;96.15;102497.41;5084559;28;20027;-71
2023/09/24 08:20:08;;;;;;;10.80;4.60;;;;;;;12.20;95.88;102504.88;5085911;28;20024;-71
2023/09/24 08:22:33;;;;;;;10.25;4.70;;;;;;;12.30;95.62;102503.88;5083455;28;20101;-71
2023/09/24 08:24:58;;;;;;;12.02;4.80;;;;;;;12.41;96.08;102497.53;5086045;28;20032;-71
2023/09/24 08:27:23;;;;;;;10.55;4.50;;;;;;;12.48;95.50;102508.50;5088341;28;20120;-71
2023/09/24 08:29:52;;;;;;;9.68;3.88;;;;;;;12.57;94.99;102512.97;5088869;28;20451;-70
2023/09/24 08:32:18;;;;;;;10.00;4.00;;;;;;;12.63;94.89;102504.41;5087923;28;20651;-71
2023/09/24 08:34:43;;;;;;;9.77;4.00;;;;;;;12.73;94.18;102510.56;5090142;28;20039;-71
2023/09/24 08:37:08;;;;;;;8.93;3.60;;;;;;;12.79;93.58;102515.31;5086706;28;20050;-71
2023/09/24 08:39:35;;;;;;;12.02;3.95;;;;;;;12.87;93.20;102517.25;5081177;28;20016;-71
2023/09/24 08:42:02;;;;;;;7.63;3.15;;;;;;;12.98;92.93;102514.41;5084214;28;20458;-71
2023/09/24 08:44:28;;;;;;;8.93;3.72;;;;;;;13.06;92.85;102517.22;5084342;28;20056;-71
2023/09/24 08:46:54;;;;;;;8.75;3.13;;;;;;;13.15;92.56;102510.16;5087632;28;20028;-71
2023/09/24 08:49:20;;;;;;;9.00;3.22;;;;;;;13.22;92.56;102509.44;5080285;28;20024;-72
2023/09/24 08:51:46;;;;;;;9.60;3.30;;;;;;;13.32;91.98;102528.94;5100231;28;20026;-71
2023/09/24 08:54:13;;;;;;;7.25;2.85;;;;;;;13.44;90.90;102520.72;5088904;28;20028;-71
2023/09/24 08:56:39;;;;;;;5.97;2.60;;;;;;;13.54;90.39;102514.34;5095495;28;20043;-71
2023/09/24 08:59:05;;;;;;;7.90;2.92;;;;;;;13.66;89.89;102520.31;5098183;28;20085;-71
2023/09/24 09:01:30;;;;;;;5.38;2.28;;;;;;;13.74;89.67;102514.22;5092369;28;20031;-71
2023/09/24 09:03:56;;;;;;;5.82;2.60;;;;;;;13.89;88.90;102520.75;5095987;28;20027;-71
2023/09/24 09:06:35;;;;;;;8.48;2.42;;;;;;;14.02;88.26;102517.69;5088544;28;20016;-71
2023/09/24 09:09:01;;;;;;;7.22;2.75;;;;;;;14.20;88.54;102521.22;5089929;28;20114;-72
2023/09/24 09:11:41;;;;;;;6.95;2.55;;;;;;;14.32;87.65;102519.97;5085475;28;20132;-71
2023/09/24 09:14:07;;;;;;;4.75;1.95;;;;;;;14.45;86.63;102516.94;5090380;28;20031;-71
2023/09/24 09:16:33;;;;;;;7.07;2.30;;;;;;;14.60;86.13;102503.84;5082162;28;20031;-71
2023/09/24 09:19:00;;;;;;;6.10;2.05;;;;;;;14.77;84.65;102502.97;5096122;28;20019;-71
2023/09/24 09:21:26;;;;;;;6.45;2.50;;;;;;;14.84;84.19;102496.84;5094745;28;20020;-71
2023/09/24 09:23:52;;;;;;;5.95;2.05;;;;;;;14.93;83.43;102497.72;5097312;28;20026;-71
2023/09/24 09:26:17;;;;;;;5.55;1.90;;;;;;;15.04;82.91;102494.78;5086343;28;20016;-70
2023/09/24 09:28:42;;;;;;;4.82;1.60;;;;;;;15.16;82.97;102492.66;5095401;28;20027;-71
2023/09/24 09:31:09;;;;;;;7.05;1.90;;;;;;;15.28;81.90;102491.34;5091309;28;20060;-71
2023/09/24 09:33:43;;;;;;;4.90;1.73;;;;;;;15.33;81.17;102477.53;5095739;28;20077;-71
2023/09/24 09:36:21;;;;;;;4.63;1.88;;;;;;;15.51;81.89;102478.22;5091455;28;20089;-71
2023/09/24 09:38:46;;;;;;;5.85;2.00;;;;;;;15.66;81.53;102473.97;5088777;28;20481;-71
2023/09/24 09:41:16;;;;;;;5.57;1.73;;;;;;;15.71;80.14;102482.34;5079970;28;20031;-71
2023/09/24 09:43:42;;;;;;;7.30;2.20;;;;;;;15.94;80.43;102473.69;5087768;28;20059;-71
2023/09/24 09:46:10;;;;;;;4.53;1.75;;;;;;;16.00;79.65;102475.69;5083109;28;20459;-70
2023/09/24 09:48:37;;;;;;;4.10;1.70;;;;;;;16.10;78.83;102471.84;5086530;28;20024;-71
2023/09/24 09:51:07;;;;;;;6.40;1.92;;;;;;;16.26;78.85;102465.66;5092185;28;20114;-71
2023/09/24 09:53:34;;;;;;;4.78;1.55;;;;;;;16.31;77.29;102473.19;5089338;28;20028;-71
2023/09/24 09:56:09;;;;;;;6.25;1.85;;;;;;;16.38;76.57;102456.25;5088677;28;20536;-71
2023/09/24 09:58:36;;;;;;;5.32;1.67;;;;;;;16.41;76.34;102457.75;5082640;28;20066;-70
2023/09/24 10:01:05;;;;;;;5.40;1.65;;;;;;;16.50;75.79;102461.28;5090010;28;20051;-71
2023/09/24 10:03:34;;;;;;;4.83;1.60;;;;;;;16.60;75.04;102452.03;5088564;28;20028;-71
2023/09/24 10:06:01;;;;;;;5.93;1.75;;;;;;;16.63;74.87;102453.53;5094139;28;20034;-71
2023/09/24 10:08:39;;;;;;;5.70;1.67;;;;;;;16.73;75.57;102446.16;5081661;28;20036;-71
2023/09/24 10:11:06;;;;;;;4.60;1.60;;;;;;;16.86;75.70;102442.94;5084913;28;20116;-71
2023/09/24 10:13:43;;;;;;;3.80;1.63;;;;;;;16.94;73.87;102451.78;5084779;28;20016;-71
2023/09/24 10:16:23;;;;;;;8.13;1.85;;;;;;;16.93;73.11;102444.75;5085838;28;20078;-71
2023/09/24 10:18:55;;;;;;;6.97;1.60;;;;;;;16.96;73.29;102446.25;5085907;28;20470;-71
2023/09/24 10:21:45;;;;;;;6.60;1.90;;;;;;;17.07;73.36;102443.22;5082013;28;20098;-72
2023/09/24 10:24:10;;;;;;;3.97;1.67;;;;;;;17.15;72.98;102437.78;5082426;28;20020;-72
2023/09/24 10:26:51;;;;;;;4.35;1.63;;;;;;;17.24;71.45;102444.78;5082600;28;20030;-72
2023/09/24 10:29:19;;;;;;;3.88;1.35;;;;;;;17.23;70.19;102439.59;5085005;28;20024;-71
2023/09/24 10:32:07;;;;;;;6.70;1.50;;;;;;;17.26;70.21;102436.56;5085507;28;20028;-71
2023/09/24 10:34:55;;;;;;;5.93;1.63;;;;;;;17.28;67.58;102442.59;5084979;28;20043;-71
2023/09/24 10:37:21;;;;;;;2.80;1.13;;;;;;;17.26;67.63;102429.34;5085646;28;20035;-71
2023/09/24 10:42:29;;;;;;;4.35;1.30;;;;;;;17.38;67.62;102440.53;5083790;28;20032;-71
2023/09/24 10:45:06;;;;;;;3.47;1.33;;;;;;;17.46;67.19;102437.81;5084942;28;20407;-71
2023/09/24 10:47:37;;;;;;;3.75;1.42;;;;;;;17.57;66.98;102423.94;5083321;28;20096;-71
2023/09/24 10:50:10;;;;;;;4.38;1.30;;;;;;;17.65;66.05;102431.97;5078552;28;20028;-71
2023/09/24 10:52:45;;;;;;;3.25;1.40;;;;;;;17.72;65.30;102423.22;5087937;28;20099;-71
2023/09/24 10:55:10;;;;;;;4.70;1.45;;;;;;;17.73;64.96;102435.66;5094783;28;20463;-71
2023/09/24 10:57:36;;;;;;;4.43;1.58;;;;;;;17.83;65.16;102430.88;5089923;28;20088;-71
2023/09/24 11:00:02;;;;;;;4.28;1.50;;;;;;;17.86;64.46;102428.66;5087612;28;20043;-71
2023/09/24 11:02:28;;;;;;;3.35;1.35;;;;;;;17.89;63.99;102416.69;5086883;28;20028;-71
2023/09/24 11:04:53;;;;;;;5.53;1.48;;;;;;;18.00;64.56;102418.97;5091219;28;20081;-71
2023/09/24 11:07:18;;;;;;;3.35;1.40;;;;;;;18.10;64.61;102416.03;5094503;28;20035;-71
2023/09/24 11:09:50;;;;;;;4.90;1.50;;;;;;;18.16;64.08;102420.66;5087481;28;20389;-71
2023/09/24 11:12:15;;;;;;;5.53;1.80;;;;;;;18.21;64.17;102424.50;5082575;28;20060;-71
2023/09/24 11:14:40;;;;;;;5.53;1.85;;;;;;;18.30;64.52;102427.13;5088799;28;20071;-72
2023/09/24 11:17:06;;;;;;;4.60;1.30;;;;;;;18.33;63.42;102422.19;5092610;28;20084;-72
2023/09/24 11:19:44;;;;;;;5.00;1.38;;;;;;;18.30;61.98;102422.56;5086368;28;20027;-71